sensor_id;sensor_type;location;lat;lon;timestamp;P1;durP1;ratioP1;P2;durP2;ratioP2
20230;SDS011;10274;49.022;9.338;2022-07-10T00:00:48;3.90;;;3.50;;
20230;SDS011;10274;49.022;9.338;2022-07-10T00:03:16;3.93;;;3.63;;
20230;SDS011;10274;49.022;9.338;2022-07-10T00:05:42;3.97;;;3.63;;
20230;SDS011;10274;49.022;9.338;2022-07-10T00:08:09;7.27;;;3.60;;
20230;SDS011;10274;49.022;9.338;2022-07-10T00:10:36;4.00;;;3.70;;
20230;SDS011;10274;49.022;9.338;2022-07-10T00:13:03;4.27;;;3.97;;
20230;SDS011;10274;49.022;9.338;2022-07-10T00:15:29;4.03;;;3.63;;
20230;SDS011;10274;49.022;9.338;2022-07-10T00:17:57;4.40;;;4.00;;
20230;SDS011;10274;49.022;9.338;2022-07-10T00:20:25;3.97;;;3.67;;
20230;SDS011;10274;49.022;9.338;2022-07-10T00:22:51;4.67;;;4.27;;
20230;SDS011;10274;49.022;9.338;2022-07-10T00:25:18;4.57;;;4.20;;
20230;SDS011;10274;49.022;9.338;2022-07-10T00:27:45;4.10;;;3.80;;
20230;SDS011;10274;49.022;9.338;2022-07-10T00:30:11;5.03;;;4.03;;
20230;SDS011;10274;49.022;9.338;2022-07-10T00:32:39;4.57;;;3.83;;
20230;SDS011;10274;49.022;9.338;2022-07-10T00:35:06;4.30;;;3.90;;
20230;SDS011;10274;49.022;9.338;2022-07-10T00:37:34;4.27;;;3.90;;
20230;SDS011;10274;49.022;9.338;2022-07-10T00:40:02;4.17;;;3.87;;
20230;SDS011;10274;49.022;9.338;2022-07-10T00:42:30;4.60;;;4.13;;
20230;SDS011;10274;49.022;9.338;2022-07-10T00:44:57;4.27;;;3.80;;
20230;SDS011;10274;49.022;9.338;2022-07-10T00:47:23;4.23;;;3.93;;
20230;SDS011;10274;49.022;9.338;2022-07-10T00:49:50;4.70;;;4.30;;
20230;SDS011;10274;49.022;9.338;2022-07-10T00:52:17;4.97;;;4.57;;
20230;SDS011;10274;49.022;9.338;2022-07-10T00:54:47;4.63;;;4.23;;
20230;SDS011;10274;49.022;9.338;2022-07-10T00:57:16;5.73;;;4.10;;
20230;SDS011;10274;49.022;9.338;2022-07-10T00:59:44;4.80;;;4.23;;
20230;SDS011;10274;49.022;9.338;2022-07-10T01:02:12;4.73;;;4.33;;
20230;SDS011;10274;49.022;9.338;2022-07-10T01:04:39;4.67;;;4.27;;
20230;SDS011;10274;49.022;9.338;2022-07-10T01:07:06;6.53;;;4.00;;
20230;SDS011;10274;49.022;9.338;2022-07-10T01:09:33;4.70;;;3.87;;
20230;SDS011;10274;49.022;9.338;2022-07-10T01:12:01;4.23;;;3.83;;
20230;SDS011;10274;49.022;9.338;2022-07-10T01:14:29;3.73;;;3.40;;
20230;SDS011;10274;49.022;9.338;2022-07-10T01:16:56;4.20;;;3.90;;
20230;SDS011;10274;49.022;9.338;2022-07-10T01:19:23;3.93;;;3.60;;
20230;SDS011;10274;49.022;9.338;2022-07-10T01:21:51;4.37;;;3.60;;
20230;SDS011;10274;49.022;9.338;2022-07-10T01:24:18;4.70;;;3.97;;
20230;SDS011;10274;49.022;9.338;2022-07-10T01:26:44;5.30;;;4.00;;
20230;SDS011;10274;49.022;9.338;2022-07-10T01:29:11;4.40;;;4.00;;
20230;SDS011;10274;49.022;9.338;2022-07-10T01:31:38;4.13;;;3.80;;
20230;SDS011;10274;49.022;9.338;2022-07-10T01:34:06;4.70;;;4.20;;
20230;SDS011;10274;49.022;9.338;2022-07-10T01:36:34;5.07;;;3.90;;
20230;SDS011;10274;49.022;9.338;2022-07-10T01:39:03;4.93;;;4.03;;
20230;SDS011;10274;49.022;9.338;2022-07-10T01:41:30;4.57;;;4.17;;
20230;SDS011;10274;49.022;9.338;2022-07-10T01:43:57;4.57;;;4.03;;
20230;SDS011;10274;49.022;9.338;2022-07-10T01:46:23;4.37;;;3.97;;
20230;SDS011;10274;49.022;9.338;2022-07-10T01:48:50;3.83;;;3.53;;
20230;SDS011;10274;49.022;9.338;2022-07-10T01:51:17;4.80;;;4.30;;
20230;SDS011;10274;49.022;9.338;2022-07-10T01:53:44;4.17;;;3.80;;
20230;SDS011;10274;49.022;9.338;2022-07-10T01:56:12;4.33;;;4.00;;
20230;SDS011;10274;49.022;9.338;2022-07-10T01:58:40;4.50;;;4.10;;
20230;SDS011;10274;49.022;9.338;2022-07-10T02:01:07;4.27;;;3.93;;
20230;SDS011;10274;49.022;9.338;2022-07-10T02:03:35;4.50;;;4.10;;
20230;SDS011;10274;49.022;9.338;2022-07-10T02:06:19;5.13;;;4.13;;
20230;SDS011;10274;49.022;9.338;2022-07-10T02:08:46;4.70;;;4.30;;
20230;SDS011;10274;49.022;9.338;2022-07-10T02:11:14;4.33;;;3.93;;
20230;SDS011;10274;49.022;9.338;2022-07-10T02:13:41;4.37;;;4.00;;
20230;SDS011;10274;49.022;9.338;2022-07-10T02:16:07;4.30;;;4.00;;
20230;SDS011;10274;49.022;9.338;2022-07-10T02:18:35;4.70;;;4.30;;
20230;SDS011;10274;49.022;9.338;2022-07-10T02:21:03;5.00;;;4.50;;
20230;SDS011;10274;49.022;9.338;2022-07-10T02:23:29;4.77;;;4.13;;
20230;SDS011;10274;49.022;9.338;2022-07-10T02:25:56;5.37;;;4.87;;
20230;SDS011;10274;49.022;9.338;2022-07-10T02:28:24;4.87;;;4.47;;
20230;SDS011;10274;49.022;9.338;2022-07-10T02:30:51;5.13;;;4.60;;
20230;SDS011;10274;49.022;9.338;2022-07-10T02:33:18;4.60;;;4.20;;
20230;SDS011;10274;49.022;9.338;2022-07-10T02:35:45;4.17;;;3.77;;
20230;SDS011;10274;49.022;9.338;2022-07-10T02:38:11;4.43;;;4.03;;
20230;SDS011;10274;49.022;9.338;2022-07-10T02:40:38;4.80;;;4.40;;
20230;SDS011;10274;49.022;9.338;2022-07-10T02:43:05;4.63;;;4.10;;
20230;SDS011;10274;49.022;9.338;2022-07-10T02:45:33;4.33;;;4.00;;
20230;SDS011;10274;49.022;9.338;2022-07-10T02:47:59;4.77;;;4.37;;
20230;SDS011;10274;49.022;9.338;2022-07-10T02:50:26;4.87;;;4.20;;
20230;SDS011;10274;49.022;9.338;2022-07-10T02:52:53;4.27;;;3.90;;
20230;SDS011;10274;49.022;9.338;2022-07-10T02:55:20;4.50;;;4.10;;
20230;SDS011;10274;49.022;9.338;2022-07-10T02:57:46;5.33;;;4.33;;
20230;SDS011;10274;49.022;9.338;2022-07-10T03:00:13;5.13;;;4.27;;
20230;SDS011;10274;49.022;9.338;2022-07-10T03:02:41;4.00;;;3.70;;
20230;SDS011;10274;49.022;9.338;2022-07-10T03:05:08;4.53;;;4.13;;
20230;SDS011;10274;49.022;9.338;2022-07-10T03:07:35;4.90;;;4.50;;
20230;SDS011;10274;49.022;9.338;2022-07-10T03:10:02;5.67;;;4.23;;
20230;SDS011;10274;49.022;9.338;2022-07-10T03:12:29;6.27;;;4.33;;
20230;SDS011;10274;49.022;9.338;2022-07-10T03:14:55;5.20;;;4.70;;
20230;SDS011;10274;49.022;9.338;2022-07-10T03:17:24;6.70;;;4.90;;
20230;SDS011;10274;49.022;9.338;2022-07-10T03:19:52;5.30;;;4.80;;
20230;SDS011;10274;49.022;9.338;2022-07-10T03:22:19;4.70;;;4.30;;
20230;SDS011;10274;49.022;9.338;2022-07-10T03:24:46;4.57;;;4.17;;
20230;SDS011;10274;49.022;9.338;2022-07-10T03:27:13;4.60;;;4.20;;
20230;SDS011;10274;49.022;9.338;2022-07-10T03:29:39;4.30;;;3.93;;
20230;SDS011;10274;49.022;9.338;2022-07-10T03:32:07;5.63;;;3.70;;
20230;SDS011;10274;49.022;9.338;2022-07-10T03:34:34;4.60;;;3.87;;
20230;SDS011;10274;49.022;9.338;2022-07-10T03:37:02;5.10;;;4.00;;
20230;SDS011;10274;49.022;9.338;2022-07-10T03:39:29;5.30;;;4.27;;
20230;SDS011;10274;49.022;9.338;2022-07-10T03:41:56;4.53;;;3.67;;
20230;SDS011;10274;49.022;9.338;2022-07-10T03:44:22;4.40;;;4.00;;
20230;SDS011;10274;49.022;9.338;2022-07-10T03:46:49;4.27;;;3.97;;
20230;SDS011;10274;49.022;9.338;2022-07-10T03:49:16;5.20;;;3.77;;
20230;SDS011;10274;49.022;9.338;2022-07-10T03:51:42;4.10;;;3.80;;
20230;SDS011;10274;49.022;9.338;2022-07-10T03:54:10;4.87;;;4.47;;
20230;SDS011;10274;49.022;9.338;2022-07-10T03:56:37;4.67;;;4.27;;
20230;SDS011;10274;49.022;9.338;2022-07-10T03:59:22;4.13;;;3.73;;
20230;SDS011;10274;49.022;9.338;2022-07-10T04:01:48;4.40;;;4.10;;
20230;SDS011;10274;49.022;9.338;2022-07-10T04:04:15;5.67;;;4.33;;
20230;SDS011;10274;49.022;9.338;2022-07-10T04:06:42;4.40;;;4.00;;
20230;SDS011;10274;49.022;9.338;2022-07-10T04:09:08;4.30;;;3.90;;
20230;SDS011;10274;49.022;9.338;2022-07-10T04:11:36;4.67;;;3.90;;
20230;SDS011;10274;49.022;9.338;2022-07-10T04:14:03;5.20;;;4.00;;
20230;SDS011;10274;49.022;9.338;2022-07-10T04:16:29;4.20;;;3.80;;
20230;SDS011;10274;49.022;9.338;2022-07-10T04:18:56;4.00;;;3.70;;
20230;SDS011;10274;49.022;9.338;2022-07-10T04:21:23;4.80;;;4.00;;
20230;SDS011;10274;49.022;9.338;2022-07-10T04:23:49;4.43;;;4.03;;
20230;SDS011;10274;49.022;9.338;2022-07-10T04:26:18;4.93;;;4.27;;
20230;SDS011;10274;49.022;9.338;2022-07-10T04:28:44;5.50;;;5.00;;
20230;SDS011;10274;49.022;9.338;2022-07-10T04:31:11;6.53;;;4.53;;
20230;SDS011;10274;49.022;9.338;2022-07-10T04:33:38;4.53;;;4.10;;
20230;SDS011;10274;49.022;9.338;2022-07-10T04:36:05;4.30;;;3.90;;
20230;SDS011;10274;49.022;9.338;2022-07-10T04:38:32;5.10;;;4.70;;
20230;SDS011;10274;49.022;9.338;2022-07-10T04:40:59;5.50;;;4.97;;
20230;SDS011;10274;49.022;9.338;2022-07-10T04:43:27;5.23;;;4.73;;
20230;SDS011;10274;49.022;9.338;2022-07-10T04:45:53;5.20;;;4.70;;
20230;SDS011;10274;49.022;9.338;2022-07-10T04:48:20;5.43;;;4.30;;
20230;SDS011;10274;49.022;9.338;2022-07-10T04:50:46;5.10;;;4.60;;
20230;SDS011;10274;49.022;9.338;2022-07-10T04:53:13;5.67;;;4.60;;
20230;SDS011;10274;49.022;9.338;2022-07-10T04:55:40;4.40;;;4.00;;
20230;SDS011;10274;49.022;9.338;2022-07-10T04:58:07;5.33;;;4.80;;
20230;SDS011;10274;49.022;9.338;2022-07-10T05:00:35;6.20;;;4.70;;
20230;SDS011;10274;49.022;9.338;2022-07-10T05:03:01;4.57;;;4.17;;
20230;SDS011;10274;49.022;9.338;2022-07-10T05:05:28;4.70;;;4.30;;
20230;SDS011;10274;49.022;9.338;2022-07-10T05:07:55;5.20;;;4.70;;
20230;SDS011;10274;49.022;9.338;2022-07-10T05:10:22;4.63;;;4.07;;
20230;SDS011;10274;49.022;9.338;2022-07-10T05:12:48;5.23;;;4.37;;
20230;SDS011;10274;49.022;9.338;2022-07-10T05:15:15;4.90;;;4.40;;
20230;SDS011;10274;49.022;9.338;2022-07-10T05:17:43;6.47;;;3.93;;
20230;SDS011;10274;49.022;9.338;2022-07-10T05:20:10;5.10;;;3.97;;
20230;SDS011;10274;49.022;9.338;2022-07-10T05:22:37;4.70;;;3.63;;
20230;SDS011;10274;49.022;9.338;2022-07-10T05:25:04;3.67;;;3.30;;
20230;SDS011;10274;49.022;9.338;2022-07-10T05:27:31;3.53;;;3.23;;
20230;SDS011;10274;49.022;9.338;2022-07-10T05:29:57;4.87;;;3.03;;
20230;SDS011;10274;49.022;9.338;2022-07-10T05:32:24;5.33;;;2.93;;
20230;SDS011;10274;49.022;9.338;2022-07-10T05:34:52;2.87;;;2.53;;
20230;SDS011;10274;49.022;9.338;2022-07-10T05:37:19;3.23;;;2.87;;
20230;SDS011;10274;49.022;9.338;2022-07-10T05:39:45;3.63;;;2.73;;
20230;SDS011;10274;49.022;9.338;2022-07-10T05:42:12;3.83;;;2.67;;
20230;SDS011;10274;49.022;9.338;2022-07-10T05:44:39;3.40;;;2.17;;
20230;SDS011;10274;49.022;9.338;2022-07-10T05:47:05;4.13;;;2.60;;
20230;SDS011;10274;49.022;9.338;2022-07-10T05:49:32;4.63;;;2.40;;
20230;SDS011;10274;49.022;9.338;2022-07-10T05:52:00;4.37;;;2.53;;
20230;SDS011;10274;49.022;9.338;2022-07-10T05:54:27;2.90;;;2.40;;
20230;SDS011;10274;49.022;9.338;2022-07-10T05:56:54;2.50;;;2.30;;
20230;SDS011;10274;49.022;9.338;2022-07-10T05:59:20;4.00;;;2.40;;
20230;SDS011;10274;49.022;9.338;2022-07-10T06:01:48;3.37;;;2.27;;
20230;SDS011;10274;49.022;9.338;2022-07-10T06:04:14;4.10;;;2.37;;
20230;SDS011;10274;49.022;9.338;2022-07-10T06:06:41;6.33;;;2.63;;
20230;SDS011;10274;49.022;9.338;2022-07-10T06:09:09;4.87;;;2.47;;
20230;SDS011;10274;49.022;9.338;2022-07-10T06:11:36;4.17;;;2.10;;
20230;SDS011;10274;49.022;9.338;2022-07-10T06:14:02;2.73;;;1.80;;
20230;SDS011;10274;49.022;9.338;2022-07-10T06:16:29;3.33;;;1.90;;
20230;SDS011;10274;49.022;9.338;2022-07-10T06:18:56;3.47;;;2.00;;
20230;SDS011;10274;49.022;9.338;2022-07-10T06:21:22;3.80;;;2.10;;
20230;SDS011;10274;49.022;9.338;2022-07-10T06:23:49;2.67;;;1.70;;
20230;SDS011;10274;49.022;9.338;2022-07-10T06:26:17;3.67;;;1.60;;
20230;SDS011;10274;49.022;9.338;2022-07-10T06:28:44;1.97;;;1.60;;
20230;SDS011;10274;49.022;9.338;2022-07-10T06:31:11;4.87;;;1.73;;
20230;SDS011;10274;49.022;9.338;2022-07-10T06:33:37;4.10;;;1.63;;
20230;SDS011;10274;49.022;9.338;2022-07-10T06:36:05;3.57;;;1.70;;
20230;SDS011;10274;49.022;9.338;2022-07-10T06:38:32;3.37;;;2.27;;
20230;SDS011;10274;49.022;9.338;2022-07-10T06:40:59;2.30;;;1.60;;
20230;SDS011;10274;49.022;9.338;2022-07-10T06:43:27;2.73;;;1.67;;
20230;SDS011;10274;49.022;9.338;2022-07-10T06:45:54;8.07;;;1.93;;
20230;SDS011;10274;49.022;9.338;2022-07-10T06:48:21;2.23;;;1.60;;
20230;SDS011;10274;49.022;9.338;2022-07-10T06:50:47;3.73;;;1.50;;
20230;SDS011;10274;49.022;9.338;2022-07-10T06:53:14;2.37;;;1.50;;
20230;SDS011;10274;49.022;9.338;2022-07-10T06:55:41;3.40;;;1.67;;
20230;SDS011;10274;49.022;9.338;2022-07-10T06:58:08;4.87;;;1.60;;
20230;SDS011;10274;49.022;9.338;2022-07-10T07:00:36;2.10;;;1.60;;
20230;SDS011;10274;49.022;9.338;2022-07-10T07:03:02;2.40;;;1.43;;
20230;SDS011;10274;49.022;9.338;2022-07-10T07:05:29;3.77;;;1.70;;
20230;SDS011;10274;49.022;9.338;2022-07-10T07:07:56;2.63;;;1.43;;
20230;SDS011;10274;49.022;9.338;2022-07-10T07:10:22;3.47;;;1.60;;
20230;SDS011;10274;49.022;9.338;2022-07-10T07:12:49;5.37;;;1.80;;
20230;SDS011;10274;49.022;9.338;2022-07-10T07:15:16;2.63;;;1.60;;
20230;SDS011;10274;49.022;9.338;2022-07-10T07:17:46;2.67;;;1.60;;
20230;SDS011;10274;49.022;9.338;2022-07-10T07:20:36;1.90;;;1.20;;
20230;SDS011;10274;49.022;9.338;2022-07-10T07:23:21;2.07;;;1.40;;
20230;SDS011;10274;49.022;9.338;2022-07-10T07:25:49;3.00;;;1.23;;
20230;SDS011;10274;49.022;9.338;2022-07-10T07:28:16;1.53;;;1.40;;
20230;SDS011;10274;49.022;9.338;2022-07-10T07:30:43;4.27;;;1.40;;
20230;SDS011;10274;49.022;9.338;2022-07-10T07:33:12;4.30;;;1.30;;
20230;SDS011;10274;49.022;9.338;2022-07-10T07:35:39;3.87;;;1.47;;
20230;SDS011;10274;49.022;9.338;2022-07-10T07:38:06;3.13;;;1.20;;
20230;SDS011;10274;49.022;9.338;2022-07-10T07:40:33;4.47;;;1.60;;
20230;SDS011;10274;49.022;9.338;2022-07-10T07:43:02;3.37;;;1.60;;
20230;SDS011;10274;49.022;9.338;2022-07-10T07:45:29;2.07;;;1.30;;
20230;SDS011;10274;49.022;9.338;2022-07-10T07:47:56;2.37;;;1.37;;
20230;SDS011;10274;49.022;9.338;2022-07-10T07:50:26;2.87;;;1.83;;
20230;SDS011;10274;49.022;9.338;2022-07-10T07:52:54;2.27;;;1.33;;
20230;SDS011;10274;49.022;9.338;2022-07-10T07:55:21;3.97;;;1.37;;
20230;SDS011;10274;49.022;9.338;2022-07-10T07:57:50;5.10;;;1.93;;
20230;SDS011;10274;49.022;9.338;2022-07-10T08:00:18;3.50;;;1.60;;
20230;SDS011;10274;49.022;9.338;2022-07-10T08:02:47;3.73;;;1.37;;
20230;SDS011;10274;49.022;9.338;2022-07-10T08:05:14;1.47;;;1.13;;
20230;SDS011;10274;49.022;9.338;2022-07-10T08:07:43;1.87;;;1.30;;
20230;SDS011;10274;49.022;9.338;2022-07-10T08:10:12;2.13;;;1.30;;
20230;SDS011;10274;49.022;9.338;2022-07-10T08:12:39;2.43;;;1.20;;
20230;SDS011;10274;49.022;9.338;2022-07-10T08:15:07;2.90;;;1.30;;
20230;SDS011;10274;49.022;9.338;2022-07-10T08:17:35;2.00;;;1.20;;
20230;SDS011;10274;49.022;9.338;2022-07-10T08:20:02;2.43;;;1.50;;
20230;SDS011;10274;49.022;9.338;2022-07-10T08:22:29;2.60;;;1.30;;
20230;SDS011;10274;49.022;9.338;2022-07-10T08:24:57;3.33;;;1.37;;
20230;SDS011;10274;49.022;9.338;2022-07-10T08:27:23;2.03;;;1.30;;
20230;SDS011;10274;49.022;9.338;2022-07-10T08:29:50;3.10;;;1.00;;
20230;SDS011;10274;49.022;9.338;2022-07-10T08:32:17;3.93;;;1.43;;
20230;SDS011;10274;49.022;9.338;2022-07-10T08:34:44;2.20;;;1.13;;
20230;SDS011;10274;49.022;9.338;2022-07-10T08:37:11;2.43;;;1.27;;
20230;SDS011;10274;49.022;9.338;2022-07-10T08:39:38;2.10;;;1.10;;
20230;SDS011;10274;49.022;9.338;2022-07-10T08:42:06;2.80;;;1.40;;
20230;SDS011;10274;49.022;9.338;2022-07-10T08:44:33;6.60;;;1.43;;
20230;SDS011;10274;49.022;9.338;2022-07-10T08:47:01;3.80;;;1.30;;
20230;SDS011;10274;49.022;9.338;2022-07-10T08:49:28;2.53;;;1.30;;
20230;SDS011;10274;49.022;9.338;2022-07-10T08:51:57;3.77;;;1.47;;
20230;SDS011;10274;49.022;9.338;2022-07-10T08:54:25;4.53;;;1.20;;
20230;SDS011;10274;49.022;9.338;2022-07-10T08:56:55;2.93;;;1.13;;
20230;SDS011;10274;49.022;9.338;2022-07-10T08:59:24;2.50;;;1.37;;
20230;SDS011;10274;49.022;9.338;2022-07-10T09:01:51;1.57;;;1.00;;
20230;SDS011;10274;49.022;9.338;2022-07-10T09:04:20;3.13;;;1.20;;
20230;SDS011;10274;49.022;9.338;2022-07-10T09:06:48;2.30;;;1.10;;
20230;SDS011;10274;49.022;9.338;2022-07-10T09:09:15;4.17;;;1.10;;
20230;SDS011;10274;49.022;9.338;2022-07-10T09:11:41;2.77;;;1.30;;
20230;SDS011;10274;49.022;9.338;2022-07-10T09:14:08;4.13;;;1.33;;
20230;SDS011;10274;49.022;9.338;2022-07-10T09:16:38;3.27;;;1.00;;
20230;SDS011;10274;49.022;9.338;2022-07-10T09:19:15;3.03;;;1.07;;
20230;SDS011;10274;49.022;9.338;2022-07-10T09:21:44;2.40;;;1.00;;
20230;SDS011;10274;49.022;9.338;2022-07-10T09:24:11;3.00;;;1.10;;
20230;SDS011;10274;49.022;9.338;2022-07-10T09:26:39;2.22;;;1.02;;
20230;SDS011;10274;49.022;9.338;2022-07-10T09:29:08;3.08;;;1.25;;
20230;SDS011;10274;49.022;9.338;2022-07-10T09:31:49;3.75;;;1.13;;
20230;SDS011;10274;49.022;9.338;2022-07-10T09:34:17;3.20;;;1.20;;
20230;SDS011;10274;49.022;9.338;2022-07-10T09:36:45;2.88;;;1.25;;
20230;SDS011;10274;49.022;9.338;2022-07-10T09:39:12;1.50;;;0.85;;
20230;SDS011;10274;49.022;9.338;2022-07-10T09:41:39;2.38;;;1.20;;
20230;SDS011;10274;49.022;9.338;2022-07-10T09:44:06;2.05;;;1.10;;
20230;SDS011;10274;49.022;9.338;2022-07-10T09:46:34;3.42;;;1.20;;
20230;SDS011;10274;49.022;9.338;2022-07-10T09:49:04;3.28;;;1.02;;
20230;SDS011;10274;49.022;9.338;2022-07-10T09:51:33;2.05;;;1.00;;
20230;SDS011;10274;49.022;9.338;2022-07-10T09:54:01;2.37;;;1.20;;
20230;SDS011;10274;49.022;9.338;2022-07-10T09:56:30;3.67;;;1.17;;
20230;SDS011;10274;49.022;9.338;2022-07-10T09:59:02;2.17;;;0.90;;
20230;SDS011;10274;49.022;9.338;2022-07-10T10:01:32;1.93;;;0.97;;
20230;SDS011;10274;49.022;9.338;2022-07-10T10:04:01;2.20;;;1.10;;
20230;SDS011;10274;49.022;9.338;2022-07-10T10:06:32;2.53;;;1.10;;
20230;SDS011;10274;49.022;9.338;2022-07-10T10:09:03;4.15;;;1.35;;
20230;SDS011;10274;49.022;9.338;2022-07-10T10:11:31;2.65;;;1.20;;
20230;SDS011;10274;49.022;9.338;2022-07-10T10:14:02;3.03;;;1.20;;
20230;SDS011;10274;49.022;9.338;2022-07-10T10:16:29;2.38;;;1.05;;
20230;SDS011;10274;49.022;9.338;2022-07-10T10:18:56;2.55;;;0.93;;
20230;SDS011;10274;49.022;9.338;2022-07-10T10:21:43;2.47;;;1.20;;
20230;SDS011;10274;49.022;9.338;2022-07-10T10:24:11;1.95;;;1.00;;
20230;SDS011;10274;49.022;9.338;2022-07-10T10:26:39;3.33;;;1.00;;
20230;SDS011;10274;49.022;9.338;2022-07-10T10:29:05;2.90;;;1.10;;
20230;SDS011;10274;49.022;9.338;2022-07-10T10:31:33;3.30;;;1.30;;
20230;SDS011;10274;49.022;9.338;2022-07-10T10:34:00;2.20;;;1.20;;
20230;SDS011;10274;49.022;9.338;2022-07-10T10:36:49;1.90;;;1.20;;
20230;SDS011;10274;49.022;9.338;2022-07-10T10:39:17;2.40;;;1.05;;
20230;SDS011;10274;49.022;9.338;2022-07-10T10:41:47;1.77;;;1.20;;
20230;SDS011;10274;49.022;9.338;2022-07-10T10:44:18;2.65;;;1.35;;
20230;SDS011;10274;49.022;9.338;2022-07-10T10:47:04;3.08;;;1.30;;
20230;SDS011;10274;49.022;9.338;2022-07-10T10:49:54;2.63;;;1.30;;
20230;SDS011;10274;49.022;9.338;2022-07-10T10:52:28;3.15;;;1.20;;
20230;SDS011;10274;49.022;9.338;2022-07-10T10:55:00;2.00;;;1.00;;
20230;SDS011;10274;49.022;9.338;2022-07-10T10:57:36;2.25;;;1.08;;
20230;SDS011;10274;49.022;9.338;2022-07-10T11:00:13;2.30;;;1.10;;
20230;SDS011;10274;49.022;9.338;2022-07-10T11:05:43;2.88;;;1.25;;
20230;SDS011;10274;49.022;9.338;2022-07-10T11:08:13;2.40;;;1.30;;
20230;SDS011;10274;49.022;9.338;2022-07-10T11:10:41;2.78;;;1.50;;
20230;SDS011;10274;49.022;9.338;2022-07-10T11:13:09;1.47;;;1.17;;
20230;SDS011;10274;49.022;9.338;2022-07-10T11:15:37;3.35;;;1.20;;
20230;SDS011;10274;49.022;9.338;2022-07-10T11:18:07;2.85;;;1.30;;
20230;SDS011;10274;49.022;9.338;2022-07-10T11:20:35;2.15;;;1.08;;
20230;SDS011;10274;49.022;9.338;2022-07-10T11:23:08;2.33;;;1.27;;
20230;SDS011;10274;49.022;9.338;2022-07-10T11:25:54;1.77;;;1.07;;
20230;SDS011;10274;49.022;9.338;2022-07-10T11:28:40;3.15;;;1.05;;
20230;SDS011;10274;49.022;9.338;2022-07-10T11:31:12;1.98;;;1.10;;
20230;SDS011;10274;49.022;9.338;2022-07-10T11:33:39;1.35;;;0.88;;
20230;SDS011;10274;49.022;9.338;2022-07-10T11:36:09;4.80;;;1.10;;
20230;SDS011;10274;49.022;9.338;2022-07-10T11:38:38;2.60;;;1.00;;
20230;SDS011;10274;49.022;9.338;2022-07-10T11:41:12;1.88;;;1.10;;
20230;SDS011;10274;49.022;9.338;2022-07-10T11:43:49;2.90;;;1.30;;
20230;SDS011;10274;49.022;9.338;2022-07-10T11:46:18;2.25;;;1.00;;
20230;SDS011;10274;49.022;9.338;2022-07-10T11:48:46;1.77;;;0.90;;
20230;SDS011;10274;49.022;9.338;2022-07-10T11:51:17;2.53;;;1.15;;
20230;SDS011;10274;49.022;9.338;2022-07-10T11:53:58;1.05;;;0.90;;
20230;SDS011;10274;49.022;9.338;2022-07-10T11:56:28;2.03;;;0.90;;
20230;SDS011;10274;49.022;9.338;2022-07-10T11:58:57;1.85;;;1.00;;
20230;SDS011;10274;49.022;9.338;2022-07-10T12:01:25;2.70;;;1.52;;
20230;SDS011;10274;49.022;9.338;2022-07-10T12:03:56;1.37;;;0.90;;
20230;SDS011;10274;49.022;9.338;2022-07-10T12:06:24;1.95;;;1.00;;
20230;SDS011;10274;49.022;9.338;2022-07-10T12:08:51;2.77;;;1.00;;
20230;SDS011;10274;49.022;9.338;2022-07-10T12:11:19;2.83;;;1.08;;
20230;SDS011;10274;49.022;9.338;2022-07-10T12:13:48;2.30;;;1.30;;
20230;SDS011;10274;49.022;9.338;2022-07-10T12:16:18;2.35;;;0.90;;
20230;SDS011;10274;49.022;9.338;2022-07-10T12:18:45;2.97;;;1.10;;
20230;SDS011;10274;49.022;9.338;2022-07-10T12:21:14;2.70;;;1.10;;
20230;SDS011;10274;49.022;9.338;2022-07-10T12:23:42;2.10;;;1.05;;
20230;SDS011;10274;49.022;9.338;2022-07-10T12:26:11;3.47;;;1.00;;
20230;SDS011;10274;49.022;9.338;2022-07-10T12:28:53;3.28;;;1.70;;
20230;SDS011;10274;49.022;9.338;2022-07-10T12:31:21;2.38;;;1.02;;
20230;SDS011;10274;49.022;9.338;2022-07-10T12:33:52;1.88;;;0.88;;
20230;SDS011;10274;49.022;9.338;2022-07-10T12:36:22;1.48;;;0.95;;
20230;SDS011;10274;49.022;9.338;2022-07-10T12:38:53;2.38;;;1.20;;
20230;SDS011;10274;49.022;9.338;2022-07-10T12:41:24;1.67;;;0.90;;
20230;SDS011;10274;49.022;9.338;2022-07-10T12:43:52;2.47;;;1.00;;
20230;SDS011;10274;49.022;9.338;2022-07-10T12:46:20;1.90;;;1.05;;
20230;SDS011;10274;49.022;9.338;2022-07-10T12:49:01;1.85;;;0.88;;
20230;SDS011;10274;49.022;9.338;2022-07-10T12:51:30;1.93;;;1.00;;
20230;SDS011;10274;49.022;9.338;2022-07-10T12:53:58;1.92;;;1.20;;
20230;SDS011;10274;49.022;9.338;2022-07-10T12:56:32;1.23;;;0.80;;
20230;SDS011;10274;49.022;9.338;2022-07-10T12:59:02;2.80;;;0.80;;
20230;SDS011;10274;49.022;9.338;2022-07-10T13:01:38;1.60;;;0.80;;
20230;SDS011;10274;49.022;9.338;2022-07-10T13:04:06;2.22;;;0.73;;
20230;SDS011;10274;49.022;9.338;2022-07-10T13:06:35;0.73;;;0.47;;
20230;SDS011;10274;49.022;9.338;2022-07-10T13:09:02;1.00;;;0.95;;
20230;SDS011;10274;49.022;9.338;2022-07-10T13:11:43;2.40;;;1.10;;
20230;SDS011;10274;49.022;9.338;2022-07-10T13:14:11;1.52;;;0.88;;
20230;SDS011;10274;49.022;9.338;2022-07-10T13:16:38;1.30;;;0.90;;
20230;SDS011;10274;49.022;9.338;2022-07-10T13:19:05;1.13;;;0.82;;
20230;SDS011;10274;49.022;9.338;2022-07-10T13:21:31;1.27;;;0.63;;
20230;SDS011;10274;49.022;9.338;2022-07-10T13:23:58;3.10;;;0.75;;
20230;SDS011;10274;49.022;9.338;2022-07-10T13:26:25;1.52;;;0.93;;
20230;SDS011;10274;49.022;9.338;2022-07-10T13:28:54;1.77;;;0.77;;
20230;SDS011;10274;49.022;9.338;2022-07-10T13:31:22;2.40;;;1.08;;
20230;SDS011;10274;49.022;9.338;2022-07-10T13:33:49;1.30;;;0.75;;
20230;SDS011;10274;49.022;9.338;2022-07-10T13:36:16;0.75;;;0.70;;
20230;SDS011;10274;49.022;9.338;2022-07-10T13:38:42;2.92;;;0.70;;
20230;SDS011;10274;49.022;9.338;2022-07-10T13:41:12;2.45;;;0.82;;
20230;SDS011;10274;49.022;9.338;2022-07-10T13:43:38;0.77;;;0.70;;
20230;SDS011;10274;49.022;9.338;2022-07-10T13:46:05;1.87;;;0.70;;
20230;SDS011;10274;49.022;9.338;2022-07-10T13:48:33;1.47;;;0.70;;
20230;SDS011;10274;49.022;9.338;2022-07-10T13:51:00;1.53;;;0.90;;
20230;SDS011;10274;49.022;9.338;2022-07-10T13:53:27;1.70;;;0.80;;
20230;SDS011;10274;49.022;9.338;2022-07-10T13:55:53;1.00;;;0.70;;
20230;SDS011;10274;49.022;9.338;2022-07-10T13:58:20;2.07;;;0.90;;
20230;SDS011;10274;49.022;9.338;2022-07-10T14:00:47;1.93;;;0.87;;
20230;SDS011;10274;49.022;9.338;2022-07-10T14:03:14;1.90;;;0.70;;
20230;SDS011;10274;49.022;9.338;2022-07-10T14:05:42;1.30;;;0.63;;
20230;SDS011;10274;49.022;9.338;2022-07-10T14:08:09;2.20;;;0.80;;
20230;SDS011;10274;49.022;9.338;2022-07-10T14:10:36;1.50;;;0.80;;
20230;SDS011;10274;49.022;9.338;2022-07-10T14:13:02;0.97;;;0.57;;
20230;SDS011;10274;49.022;9.338;2022-07-10T14:15:30;2.63;;;0.90;;
20230;SDS011;10274;49.022;9.338;2022-07-10T14:17:57;1.73;;;1.00;;
20230;SDS011;10274;49.022;9.338;2022-07-10T14:20:24;1.53;;;0.70;;
20230;SDS011;10274;49.022;9.338;2022-07-10T14:22:52;1.17;;;0.63;;
20230;SDS011;10274;49.022;9.338;2022-07-10T14:25:19;4.50;;;1.20;;
20230;SDS011;10274;49.022;9.338;2022-07-10T14:27:49;2.03;;;0.80;;
20230;SDS011;10274;49.022;9.338;2022-07-10T14:30:15;2.43;;;1.30;;
20230;SDS011;10274;49.022;9.338;2022-07-10T14:32:43;2.43;;;0.70;;
20230;SDS011;10274;49.022;9.338;2022-07-10T14:35:10;1.00;;;0.60;;
20230;SDS011;10274;49.022;9.338;2022-07-10T14:37:36;2.00;;;0.93;;
20230;SDS011;10274;49.022;9.338;2022-07-10T14:40:06;1.90;;;0.60;;
20230;SDS011;10274;49.022;9.338;2022-07-10T14:42:33;1.53;;;0.80;;
20230;SDS011;10274;49.022;9.338;2022-07-10T14:45:00;0.80;;;0.50;;
20230;SDS011;10274;49.022;9.338;2022-07-10T14:47:26;1.95;;;0.88;;
20230;SDS011;10274;49.022;9.338;2022-07-10T14:49:54;1.60;;;0.80;;
20230;SDS011;10274;49.022;9.338;2022-07-10T14:52:21;1.07;;;0.50;;
20230;SDS011;10274;49.022;9.338;2022-07-10T14:54:50;0.95;;;0.70;;
20230;SDS011;10274;49.022;9.338;2022-07-10T14:57:18;1.37;;;0.80;;